sensor_id;sensor_type;location;lat;lon;timestamp;P1;durP1;ratioP1;P2;durP2;ratioP2
67063;SDS011;58476;48.072;11.970;2023-08-17T00:00:28;28.02;;;5.25;;
67063;SDS011;58476;48.072;11.970;2023-08-17T00:02:53;34.92;;;5.65;;
67063;SDS011;58476;48.072;11.970;2023-08-17T00:05:19;15.10;;;4.50;;
67063;SDS011;58476;48.072;11.970;2023-08-17T00:07:44;21.27;;;4.63;;
67063;SDS011;58476;48.072;11.970;2023-08-17T00:10:09;19.35;;;4.55;;
67063;SDS011;58476;48.072;11.970;2023-08-17T00:12:35;15.95;;;4.88;;
67063;SDS011;58476;48.072;11.970;2023-08-17T00:15:00;17.55;;;4.25;;
67063;SDS011;58476;48.072;11.970;2023-08-17T00:17:25;19.90;;;5.90;;
67063;SDS011;58476;48.072;11.970;2023-08-17T00:19:51;21.05;;;4.55;;
67063;SDS011;58476;48.072;11.970;2023-08-17T00:22:16;13.05;;;3.97;;
67063;SDS011;58476;48.072;11.970;2023-08-17T00:24:42;24.05;;;4.75;;
67063;SDS011;58476;48.072;11.970;2023-08-17T00:27:07;18.90;;;5.03;;
67063;SDS011;58476;48.072;11.970;2023-08-17T00:29:32;18.48;;;4.47;;
67063;SDS011;58476;48.072;11.970;2023-08-17T00:31:58;29.20;;;4.40;;
67063;SDS011;58476;48.072;11.970;2023-08-17T00:34:23;15.98;;;4.55;;
67063;SDS011;58476;48.072;11.970;2023-08-17T00:36:48;21.00;;;4.93;;
67063;SDS011;58476;48.072;11.970;2023-08-17T00:39:14;19.52;;;4.10;;
67063;SDS011;58476;48.072;11.970;2023-08-17T00:41:39;13.68;;;3.95;;
67063;SDS011;58476;48.072;11.970;2023-08-17T00:44:04;17.77;;;4.72;;
67063;SDS011;58476;48.072;11.970;2023-08-17T00:46:30;13.30;;;4.38;;
67063;SDS011;58476;48.072;11.970;2023-08-17T00:48:56;70.25;;;7.90;;
67063;SDS011;58476;48.072;11.970;2023-08-17T00:51:22;30.90;;;5.55;;
67063;SDS011;58476;48.072;11.970;2023-08-17T00:53:48;44.03;;;6.03;;
67063;SDS011;58476;48.072;11.970;2023-08-17T00:56:15;30.80;;;5.32;;
67063;SDS011;58476;48.072;11.970;2023-08-17T00:58:41;50.30;;;8.15;;
67063;SDS011;58476;48.072;11.970;2023-08-17T01:01:07;28.77;;;5.38;;
67063;SDS011;58476;48.072;11.970;2023-08-17T01:03:35;38.40;;;6.22;;
67063;SDS011;58476;48.072;11.970;2023-08-17T01:06:00;22.23;;;5.50;;
67063;SDS011;58476;48.072;11.970;2023-08-17T01:08:26;35.05;;;7.20;;
67063;SDS011;58476;48.072;11.970;2023-08-17T01:17:10;29.92;;;4.50;;
67063;SDS011;58476;48.072;11.970;2023-08-17T01:19:41;28.90;;;4.85;;
67063;SDS011;58476;48.072;11.970;2023-08-17T01:22:09;30.50;;;5.40;;
67063;SDS011;58476;48.072;11.970;2023-08-17T01:24:38;20.02;;;4.13;;
67063;SDS011;58476;48.072;11.970;2023-08-17T01:27:03;10.52;;;3.97;;
67063;SDS011;58476;48.072;11.970;2023-08-17T01:29:28;12.32;;;4.53;;
67063;SDS011;58476;48.072;11.970;2023-08-17T01:31:58;12.73;;;3.80;;
67063;SDS011;58476;48.072;11.970;2023-08-17T01:34:25;21.88;;;4.68;;
67063;SDS011;58476;48.072;11.970;2023-08-17T01:36:54;23.90;;;4.97;;
67063;SDS011;58476;48.072;11.970;2023-08-17T01:39:26;14.88;;;4.28;;
67063;SDS011;58476;48.072;11.970;2023-08-17T01:41:57;18.88;;;4.20;;
67063;SDS011;58476;48.072;11.970;2023-08-17T01:44:25;18.27;;;5.78;;
67063;SDS011;58476;48.072;11.970;2023-08-17T01:46:50;20.98;;;4.68;;
67063;SDS011;58476;48.072;11.970;2023-08-17T01:49:16;17.63;;;4.53;;
67063;SDS011;58476;48.072;11.970;2023-08-17T01:51:41;28.02;;;5.72;;
67063;SDS011;58476;48.072;11.970;2023-08-17T01:54:07;23.70;;;4.28;;
67063;SDS011;58476;48.072;11.970;2023-08-17T01:56:32;13.65;;;4.32;;
67063;SDS011;58476;48.072;11.970;2023-08-17T01:58:58;25.25;;;5.28;;
67063;SDS011;58476;48.072;11.970;2023-08-17T02:01:23;18.10;;;4.28;;
67063;SDS011;58476;48.072;11.970;2023-08-17T02:03:48;19.02;;;4.43;;
67063;SDS011;58476;48.072;11.970;2023-08-17T02:06:14;20.05;;;4.35;;
67063;SDS011;58476;48.072;11.970;2023-08-17T02:08:41;21.17;;;4.38;;
67063;SDS011;58476;48.072;11.970;2023-08-17T02:11:06;13.70;;;3.92;;
67063;SDS011;58476;48.072;11.970;2023-08-17T02:13:32;18.88;;;4.20;;
67063;SDS011;58476;48.072;11.970;2023-08-17T02:16:02;16.17;;;4.43;;
67063;SDS011;58476;48.072;11.970;2023-08-17T02:18:27;15.15;;;5.03;;
67063;SDS011;58476;48.072;11.970;2023-08-17T02:20:53;17.35;;;4.25;;
67063;SDS011;58476;48.072;11.970;2023-08-17T02:23:18;16.85;;;3.90;;
67063;SDS011;58476;48.072;11.970;2023-08-17T02:25:44;18.83;;;4.38;;
67063;SDS011;58476;48.072;11.970;2023-08-17T02:28:09;21.45;;;4.32;;
67063;SDS011;58476;48.072;11.970;2023-08-17T02:30:34;19.23;;;4.13;;
67063;SDS011;58476;48.072;11.970;2023-08-17T02:33:00;22.63;;;4.82;;
67063;SDS011;58476;48.072;11.970;2023-08-17T02:35:25;24.33;;;4.68;;
67063;SDS011;58476;48.072;11.970;2023-08-17T02:37:50;14.60;;;3.80;;
67063;SDS011;58476;48.072;11.970;2023-08-17T02:40:16;21.85;;;4.88;;
67063;SDS011;58476;48.072;11.970;2023-08-17T02:42:41;22.23;;;3.90;;
67063;SDS011;58476;48.072;11.970;2023-08-17T02:45:08;14.15;;;3.88;;
67063;SDS011;58476;48.072;11.970;2023-08-17T02:47:34;12.68;;;4.32;;
67063;SDS011;58476;48.072;11.970;2023-08-17T02:50:00;21.33;;;4.82;;
67063;SDS011;58476;48.072;11.970;2023-08-17T02:52:25;14.48;;;4.40;;
67063;SDS011;58476;48.072;11.970;2023-08-17T02:54:50;17.00;;;4.20;;
67063;SDS011;58476;48.072;11.970;2023-08-17T02:57:16;12.57;;;4.10;;
67063;SDS011;58476;48.072;11.970;2023-08-17T02:59:41;11.18;;;3.53;;
67063;SDS011;58476;48.072;11.970;2023-08-17T03:02:06;9.77;;;3.50;;
67063;SDS011;58476;48.072;11.970;2023-08-17T03:04:34;10.90;;;3.42;;
67063;SDS011;58476;48.072;11.970;2023-08-17T03:06:59;10.20;;;3.25;;
67063;SDS011;58476;48.072;11.970;2023-08-17T03:09:25;9.93;;;3.83;;
67063;SDS011;58476;48.072;11.970;2023-08-17T03:11:50;9.80;;;3.80;;
67063;SDS011;58476;48.072;11.970;2023-08-17T03:14:16;9.15;;;3.58;;
67063;SDS011;58476;48.072;11.970;2023-08-17T03:16:41;10.77;;;3.90;;
67063;SDS011;58476;48.072;11.970;2023-08-17T03:19:06;10.63;;;3.70;;
67063;SDS011;58476;48.072;11.970;2023-08-17T03:21:32;11.98;;;4.20;;
67063;SDS011;58476;48.072;11.970;2023-08-17T03:23:57;9.02;;;3.33;;
67063;SDS011;58476;48.072;11.970;2023-08-17T03:26:23;16.20;;;3.92;;
67063;SDS011;58476;48.072;11.970;2023-08-17T03:28:48;7.53;;;3.35;;
67063;SDS011;58476;48.072;11.970;2023-08-17T03:31:13;8.93;;;3.63;;
67063;SDS011;58476;48.072;11.970;2023-08-17T03:33:40;11.68;;;3.80;;
67063;SDS011;58476;48.072;11.970;2023-08-17T03:36:05;7.10;;;3.17;;
67063;SDS011;58476;48.072;11.970;2023-08-17T03:38:31;9.98;;;3.47;;
67063;SDS011;58476;48.072;11.970;2023-08-17T03:40:56;10.75;;;3.65;;
67063;SDS011;58476;48.072;11.970;2023-08-17T03:43:22;7.00;;;3.33;;
67063;SDS011;58476;48.072;11.970;2023-08-17T03:45:48;6.45;;;3.25;;
67063;SDS011;58476;48.072;11.970;2023-08-17T03:48:13;6.65;;;3.08;;
67063;SDS011;58476;48.072;11.970;2023-08-17T03:50:38;8.43;;;3.42;;
67063;SDS011;58476;48.072;11.970;2023-08-17T03:53:04;7.68;;;3.67;;
67063;SDS011;58476;48.072;11.970;2023-08-17T03:55:29;6.97;;;3.10;;
67063;SDS011;58476;48.072;11.970;2023-08-17T03:57:55;7.10;;;3.35;;
67063;SDS011;58476;48.072;11.970;2023-08-17T04:00:20;7.35;;;3.47;;
67063;SDS011;58476;48.072;11.970;2023-08-17T04:02:45;6.85;;;2.90;;
67063;SDS011;58476;48.072;11.970;2023-08-17T04:05:15;7.53;;;3.30;;
67063;SDS011;58476;48.072;11.970;2023-08-17T04:07:41;6.00;;;3.50;;
67063;SDS011;58476;48.072;11.970;2023-08-17T04:10:06;9.98;;;3.33;;
67063;SDS011;58476;48.072;11.970;2023-08-17T04:12:33;8.75;;;3.17;;
67063;SDS011;58476;48.072;11.970;2023-08-17T04:14:58;6.88;;;3.10;;
67063;SDS011;58476;48.072;11.970;2023-08-17T04:17:24;8.02;;;2.90;;
67063;SDS011;58476;48.072;11.970;2023-08-17T04:19:50;4.78;;;3.00;;
67063;SDS011;58476;48.072;11.970;2023-08-17T04:22:15;6.60;;;2.92;;
67063;SDS011;58476;48.072;11.970;2023-08-17T04:24:41;7.28;;;3.03;;
67063;SDS011;58476;48.072;11.970;2023-08-17T04:27:06;10.63;;;3.10;;
67063;SDS011;58476;48.072;11.970;2023-08-17T04:29:32;8.30;;;2.95;;
67063;SDS011;58476;48.072;11.970;2023-08-17T04:31:58;6.40;;;3.00;;
67063;SDS011;58476;48.072;11.970;2023-08-17T04:34:24;4.25;;;2.72;;
67063;SDS011;58476;48.072;11.970;2023-08-17T04:36:49;9.13;;;2.80;;
67063;SDS011;58476;48.072;11.970;2023-08-17T04:39:15;7.60;;;3.00;;
67063;SDS011;58476;48.072;11.970;2023-08-17T04:41:42;6.78;;;2.85;;
67063;SDS011;58476;48.072;11.970;2023-08-17T04:44:09;4.28;;;2.53;;
67063;SDS011;58476;48.072;11.970;2023-08-17T04:46:35;6.78;;;2.67;;
67063;SDS011;58476;48.072;11.970;2023-08-17T04:49:00;10.48;;;2.72;;
67063;SDS011;58476;48.072;11.970;2023-08-17T04:51:26;4.18;;;2.90;;
67063;SDS011;58476;48.072;11.970;2023-08-17T04:53:52;4.22;;;2.72;;
67063;SDS011;58476;48.072;11.970;2023-08-17T04:56:17;4.13;;;2.47;;
67063;SDS011;58476;48.072;11.970;2023-08-17T04:58:43;6.70;;;2.90;;
67063;SDS011;58476;48.072;11.970;2023-08-17T05:01:09;4.75;;;2.40;;
67063;SDS011;58476;48.072;11.970;2023-08-17T05:03:34;4.55;;;2.78;;
67063;SDS011;58476;48.072;11.970;2023-08-17T05:06:02;5.95;;;2.63;;
67063;SDS011;58476;48.072;11.970;2023-08-17T05:08:27;6.47;;;2.70;;
67063;SDS011;58476;48.072;11.970;2023-08-17T05:10:53;3.28;;;2.40;;
67063;SDS011;58476;48.072;11.970;2023-08-17T05:13:18;7.05;;;2.50;;
67063;SDS011;58476;48.072;11.970;2023-08-17T05:15:44;4.28;;;2.72;;
67063;SDS011;58476;48.072;11.970;2023-08-17T05:18:10;3.88;;;2.65;;
67063;SDS011;58476;48.072;11.970;2023-08-17T05:20:36;2.85;;;2.28;;
67063;SDS011;58476;48.072;11.970;2023-08-17T05:23:01;6.57;;;2.53;;
67063;SDS011;58476;48.072;11.970;2023-08-17T05:25:28;5.72;;;2.42;;
67063;SDS011;58476;48.072;11.970;2023-08-17T05:27:54;6.47;;;2.95;;
67063;SDS011;58476;48.072;11.970;2023-08-17T05:30:19;5.72;;;2.30;;
67063;SDS011;58476;48.072;11.970;2023-08-17T05:32:45;3.42;;;2.38;;
67063;SDS011;58476;48.072;11.970;2023-08-17T05:35:11;5.60;;;3.30;;
67063;SDS011;58476;48.072;11.970;2023-08-17T05:37:37;4.63;;;4.00;;
67063;SDS011;58476;48.072;11.970;2023-08-17T05:40:02;4.85;;;4.15;;
67063;SDS011;58476;48.072;11.970;2023-08-17T05:42:27;6.18;;;4.78;;
67063;SDS011;58476;48.072;11.970;2023-08-17T05:44:53;6.85;;;4.60;;
67063;SDS011;58476;48.072;11.970;2023-08-17T05:47:18;6.65;;;4.50;;
67063;SDS011;58476;48.072;11.970;2023-08-17T05:49:44;5.10;;;4.57;;
67063;SDS011;58476;48.072;11.970;2023-08-17T05:52:09;4.85;;;4.20;;
67063;SDS011;58476;48.072;11.970;2023-08-17T05:54:34;6.40;;;4.47;;
67063;SDS011;58476;48.072;11.970;2023-08-17T05:57:00;5.65;;;4.30;;
67063;SDS011;58476;48.072;11.970;2023-08-17T05:59:26;6.38;;;4.65;;
67063;SDS011;58476;48.072;11.970;2023-08-17T06:01:51;5.60;;;4.65;;
67063;SDS011;58476;48.072;11.970;2023-08-17T06:04:17;6.43;;;4.57;;
67063;SDS011;58476;48.072;11.970;2023-08-17T06:06:42;6.47;;;5.05;;
67063;SDS011;58476;48.072;11.970;2023-08-17T06:09:07;5.88;;;4.70;;
67063;SDS011;58476;48.072;11.970;2023-08-17T06:11:33;6.30;;;4.60;;
67063;SDS011;58476;48.072;11.970;2023-08-17T06:13:58;6.85;;;4.68;;
67063;SDS011;58476;48.072;11.970;2023-08-17T06:16:23;6.45;;;5.07;;
67063;SDS011;58476;48.072;11.970;2023-08-17T06:18:49;6.43;;;5.10;;
67063;SDS011;58476;48.072;11.970;2023-08-17T06:21:14;8.02;;;5.47;;
67063;SDS011;58476;48.072;11.970;2023-08-17T06:23:40;7.40;;;5.75;;
67063;SDS011;58476;48.072;11.970;2023-08-17T06:26:05;7.07;;;5.47;;
67063;SDS011;58476;48.072;11.970;2023-08-17T06:28:30;8.35;;;6.10;;
67063;SDS011;58476;48.072;11.970;2023-08-17T06:30:56;8.43;;;6.00;;
67063;SDS011;58476;48.072;11.970;2023-08-17T06:33:21;7.90;;;5.80;;
67063;SDS011;58476;48.072;11.970;2023-08-17T06:35:48;7.68;;;6.07;;
67063;SDS011;58476;48.072;11.970;2023-08-17T06:38:13;8.98;;;6.10;;
67063;SDS011;58476;48.072;11.970;2023-08-17T06:40:39;9.07;;;5.85;;
67063;SDS011;58476;48.072;11.970;2023-08-17T06:43:04;14.80;;;6.10;;
67063;SDS011;58476;48.072;11.970;2023-08-17T06:45:33;9.25;;;5.53;;
67063;SDS011;58476;48.072;11.970;2023-08-17T06:47:58;10.75;;;5.65;;
67063;SDS011;58476;48.072;11.970;2023-08-17T06:50:24;8.95;;;5.15;;
67063;SDS011;58476;48.072;11.970;2023-08-17T06:52:49;10.02;;;6.05;;
67063;SDS011;58476;48.072;11.970;2023-08-17T06:55:15;9.00;;;5.28;;
67063;SDS011;58476;48.072;11.970;2023-08-17T06:57:40;10.02;;;5.18;;
67063;SDS011;58476;48.072;11.970;2023-08-17T07:00:05;8.82;;;5.40;;
67063;SDS011;58476;48.072;11.970;2023-08-17T07:02:32;10.32;;;5.85;;
67063;SDS011;58476;48.072;11.970;2023-08-17T07:04:57;9.63;;;5.28;;
67063;SDS011;58476;48.072;11.970;2023-08-17T07:07:23;8.35;;;5.40;;
67063;SDS011;58476;48.072;11.970;2023-08-17T07:09:48;10.65;;;5.25;;
67063;SDS011;58476;48.072;11.970;2023-08-17T07:12:13;13.25;;;5.32;;
67063;SDS011;58476;48.072;11.970;2023-08-17T07:14:39;17.25;;;6.10;;
67063;SDS011;58476;48.072;11.970;2023-08-17T07:17:04;8.93;;;5.85;;
67063;SDS011;58476;48.072;11.970;2023-08-17T07:19:29;8.52;;;5.53;;
67063;SDS011;58476;48.072;11.970;2023-08-17T07:21:55;10.48;;;4.80;;
67063;SDS011;58476;48.072;11.970;2023-08-17T07:24:20;14.35;;;5.60;;
67063;SDS011;58476;48.072;11.970;2023-08-17T07:26:46;14.00;;;5.10;;
67063;SDS011;58476;48.072;11.970;2023-08-17T07:29:11;9.48;;;4.93;;
67063;SDS011;58476;48.072;11.970;2023-08-17T07:31:37;7.13;;;4.68;;
67063;SDS011;58476;48.072;11.970;2023-08-17T07:34:05;9.13;;;4.70;;
67063;SDS011;58476;48.072;11.970;2023-08-17T07:36:31;14.13;;;5.55;;
67063;SDS011;58476;48.072;11.970;2023-08-17T07:38:57;11.27;;;4.30;;
67063;SDS011;58476;48.072;11.970;2023-08-17T07:41:22;9.43;;;4.20;;
67063;SDS011;58476;48.072;11.970;2023-08-17T07:43:48;12.98;;;4.90;;
67063;SDS011;58476;48.072;11.970;2023-08-17T07:46:13;12.00;;;4.60;;
67063;SDS011;58476;48.072;11.970;2023-08-17T07:48:38;12.98;;;4.13;;
67063;SDS011;58476;48.072;11.970;2023-08-17T07:51:04;18.70;;;4.63;;
67063;SDS011;58476;48.072;11.970;2023-08-17T07:53:29;10.18;;;4.40;;
67063;SDS011;58476;48.072;11.970;2023-08-17T07:55:54;18.73;;;4.75;;
67063;SDS011;58476;48.072;11.970;2023-08-17T07:58:20;18.35;;;5.10;;
67063;SDS011;58476;48.072;11.970;2023-08-17T08:00:45;17.45;;;4.53;;
67063;SDS011;58476;48.072;11.970;2023-08-17T08:03:10;15.10;;;4.47;;
67063;SDS011;58476;48.072;11.970;2023-08-17T08:05:36;18.00;;;4.53;;
67063;SDS011;58476;48.072;11.970;2023-08-17T08:08:01;20.70;;;4.97;;
67063;SDS011;58476;48.072;11.970;2023-08-17T08:10:27;12.93;;;4.35;;
67063;SDS011;58476;48.072;11.970;2023-08-17T08:12:53;12.10;;;4.72;;
67063;SDS011;58476;48.072;11.970;2023-08-17T08:15:18;13.80;;;4.47;;
67063;SDS011;58476;48.072;11.970;2023-08-17T08:17:44;13.07;;;4.38;;
67063;SDS011;58476;48.072;11.970;2023-08-17T08:20:09;15.55;;;4.60;;
67063;SDS011;58476;48.072;11.970;2023-08-17T08:22:35;15.73;;;5.22;;
67063;SDS011;58476;48.072;11.970;2023-08-17T08:25:00;10.68;;;4.05;;
67063;SDS011;58476;48.072;11.970;2023-08-17T08:27:25;7.55;;;4.15;;
67063;SDS011;58476;48.072;11.970;2023-08-17T08:29:50;8.30;;;4.40;;
67063;SDS011;58476;48.072;11.970;2023-08-17T08:32:16;8.30;;;4.35;;
67063;SDS011;58476;48.072;11.970;2023-08-17T08:34:41;12.10;;;4.68;;
67063;SDS011;58476;48.072;11.970;2023-08-17T08:37:06;12.27;;;4.22;;
67063;SDS011;58476;48.072;11.970;2023-08-17T08:39:32;7.38;;;4.00;;
67063;SDS011;58476;48.072;11.970;2023-08-17T08:41:57;12.13;;;3.97;;
67063;SDS011;58476;48.072;11.970;2023-08-17T08:44:23;6.97;;;3.92;;
67063;SDS011;58476;48.072;11.970;2023-08-17T08:46:48;7.55;;;3.85;;
67063;SDS011;58476;48.072;11.970;2023-08-17T08:49:17;11.50;;;4.38;;
67063;SDS011;58476;48.072;11.970;2023-08-17T08:51:47;6.47;;;4.10;;
67063;SDS011;58476;48.072;11.970;2023-08-17T08:56:43;9.50;;;3.78;;
67063;SDS011;58476;48.072;11.970;2023-08-17T08:59:11;8.05;;;3.55;;
67063;SDS011;58476;48.072;11.970;2023-08-17T09:01:36;7.13;;;3.88;;
67063;SDS011;58476;48.072;11.970;2023-08-17T09:04:03;10.68;;;3.83;;
67063;SDS011;58476;48.072;11.970;2023-08-17T09:06:29;8.63;;;3.88;;
67063;SDS011;58476;48.072;11.970;2023-08-17T09:08:57;7.18;;;3.70;;
67063;SDS011;58476;48.072;11.970;2023-08-17T09:11:23;7.28;;;3.72;;
67063;SDS011;58476;48.072;11.970;2023-08-17T09:13:48;8.57;;;3.78;;
67063;SDS011;58476;48.072;11.970;2023-08-17T09:16:13;8.30;;;3.88;;
67063;SDS011;58476;48.072;11.970;2023-08-17T09:18:39;8.38;;;3.88;;
67063;SDS011;58476;48.072;11.970;2023-08-17T09:21:04;4.55;;;3.25;;
67063;SDS011;58476;48.072;11.970;2023-08-17T09:23:30;5.88;;;3.72;;
67063;SDS011;58476;48.072;11.970;2023-08-17T09:25:55;6.50;;;3.72;;
67063;SDS011;58476;48.072;11.970;2023-08-17T09:28:21;6.38;;;3.33;;
67063;SDS011;58476;48.072;11.970;2023-08-17T09:31:20;9.00;;;3.50;;
67063;SDS011;58476;48.072;11.970;2023-08-17T09:33:38;9.50;;;3.40;;
67063;SDS011;58476;48.072;11.970;2023-08-17T09:36:04;7.97;;;3.60;;
67063;SDS011;58476;48.072;11.970;2023-08-17T09:38:29;6.82;;;3.25;;
67063;SDS011;58476;48.072;11.970;2023-08-17T09:40:55;6.32;;;3.42;;
67063;SDS011;58476;48.072;11.970;2023-08-17T09:43:22;6.13;;;3.40;;
67063;SDS011;58476;48.072;11.970;2023-08-17T09:45:47;9.05;;;3.50;;
67063;SDS011;58476;48.072;11.970;2023-08-17T09:48:14;10.23;;;3.72;;
67063;SDS011;58476;48.072;11.970;2023-08-17T09:50:41;7.35;;;3.70;;
67063;SDS011;58476;48.072;11.970;2023-08-17T09:53:10;8.98;;;3.60;;
67063;SDS011;58476;48.072;11.970;2023-08-17T09:55:37;17.95;;;3.78;;
67063;SDS011;58476;48.072;11.970;2023-08-17T09:58:05;11.20;;;3.90;;
67063;SDS011;58476;48.072;11.970;2023-08-17T10:00:31;8.10;;;3.25;;
67063;SDS011;58476;48.072;11.970;2023-08-17T10:02:58;8.45;;;4.18;;
67063;SDS011;58476;48.072;11.970;2023-08-17T10:05:31;9.27;;;3.40;;
67063;SDS011;58476;48.072;11.970;2023-08-17T10:08:01;10.07;;;3.92;;
67063;SDS011;58476;48.072;11.970;2023-08-17T10:10:28;9.27;;;3.50;;
67063;SDS011;58476;48.072;11.970;2023-08-17T10:13:08;6.15;;;3.60;;
67063;SDS011;58476;48.072;11.970;2023-08-17T10:15:37;7.50;;;3.63;;
67063;SDS011;58476;48.072;11.970;2023-08-17T10:20:52;9.40;;;3.50;;
67063;SDS011;58476;48.072;11.970;2023-08-17T10:23:22;13.25;;;3.50;;
67063;SDS011;58476;48.072;11.970;2023-08-17T10:25:50;6.50;;;3.60;;
67063;SDS011;58476;48.072;11.970;2023-08-17T10:28:16;6.93;;;3.55;;
67063;SDS011;58476;48.072;11.970;2023-08-17T10:30:42;8.23;;;3.50;;
67063;SDS011;58476;48.072;11.970;2023-08-17T10:33:07;5.68;;;3.35;;
67063;SDS011;58476;48.072;11.970;2023-08-17T10:35:34;6.03;;;3.40;;
67063;SDS011;58476;48.072;11.970;2023-08-17T10:38:00;7.25;;;3.50;;
67063;SDS011;58476;48.072;11.970;2023-08-17T10:40:36;5.43;;;3.30;;
67063;SDS011;58476;48.072;11.970;2023-08-17T10:43:04;7.03;;;3.40;;
67063;SDS011;58476;48.072;11.970;2023-08-17T10:45:30;11.73;;;3.30;;
67063;SDS011;58476;48.072;11.970;2023-08-17T10:50:25;8.43;;;3.80;;
67063;SDS011;58476;48.072;11.970;2023-08-17T10:52:52;10.90;;;4.65;;
67063;SDS011;58476;48.072;11.970;2023-08-17T10:55:34;10.70;;;3.70;;
67063;SDS011;58476;48.072;11.970;2023-08-17T10:58:00;8.77;;;3.38;;
67063;SDS011;58476;48.072;11.970;2023-08-17T11:00:27;7.30;;;3.30;;
67063;SDS011;58476;48.072;11.970;2023-08-17T11:02:59;11.10;;;3.55;;
67063;SDS011;58476;48.072;11.970;2023-08-17T11:08:08;8.52;;;3.35;;
67063;SDS011;58476;48.072;11.970;2023-08-17T11:11:28;5.82;;;3.38;;
67063;SDS011;58476;48.072;11.970;2023-08-17T11:13:36;7.53;;;3.55;;
67063;SDS011;58476;48.072;11.970;2023-08-17T11:16:03;6.53;;;3.53;;
67063;SDS011;58476;48.072;11.970;2023-08-17T11:18:30;8.13;;;3.60;;
67063;SDS011;58476;48.072;11.970;2023-08-17T11:20:56;13.40;;;4.35;;
67063;SDS011;58476;48.072;11.970;2023-08-17T11:23:22;9.77;;;3.40;;
67063;SDS011;58476;48.072;11.970;2023-08-17T11:25:48;8.75;;;3.35;;
67063;SDS011;58476;48.072;11.970;2023-08-17T11:28:14;9.48;;;3.30;;
67063;SDS011;58476;48.072;11.970;2023-08-17T11:30:40;8.23;;;3.83;;
67063;SDS011;58476;48.072;11.970;2023-08-17T11:33:06;7.97;;;3.50;;
67063;SDS011;58476;48.072;11.970;2023-08-17T11:35:32;8.65;;;4.22;;
67063;SDS011;58476;48.072;11.970;2023-08-17T11:37:57;12.88;;;3.80;;
67063;SDS011;58476;48.072;11.970;2023-08-17T11:40:23;9.48;;;3.85;;
67063;SDS011;58476;48.072;11.970;2023-08-17T11:42:50;13.30;;;4.35;;
67063;SDS011;58476;48.072;11.970;2023-08-17T11:45:15;11.52;;;3.80;;
67063;SDS011;58476;48.072;11.970;2023-08-17T11:47:41;7.38;;;3.78;;
67063;SDS011;58476;48.072;11.970;2023-08-17T11:50:10;10.73;;;3.95;;
67063;SDS011;58476;48.072;11.970;2023-08-17T11:52:37;12.93;;;4.00;;
67063;SDS011;58476;48.072;11.970;2023-08-17T11:55:04;12.38;;;3.65;;
67063;SDS011;58476;48.072;11.970;2023-08-17T11:57:30;12.30;;;4.07;;
67063;SDS011;58476;48.072;11.970;2023-08-17T11:59:55;10.60;;;4.22;;
67063;SDS011;58476;48.072;11.970;2023-08-17T12:02:24;9.43;;;3.20;;
67063;SDS011;58476;48.072;11.970;2023-08-17T12:04:51;6.90;;;3.83;;
67063;SDS011;58476;48.072;11.970;2023-08-17T12:07:20;11.88;;;3.70;;
67063;SDS011;58476;48.072;11.970;2023-08-17T12:09:47;9.50;;;3.58;;
67063;SDS011;58476;48.072;11.970;2023-08-17T12:12:13;6.75;;;3.90;;
67063;SDS011;58476;48.072;11.970;2023-08-17T12:14:42;10.18;;;4.18;;
67063;SDS011;58476;48.072;11.970;2023-08-17T12:17:07;13.38;;;3.95;;
67063;SDS011;58476;48.072;11.970;2023-08-17T12:19:32;12.40;;;4.00;;
67063;SDS011;58476;48.072;11.970;2023-08-17T12:21:58;10.82;;;3.92;;
67063;SDS011;58476;48.072;11.970;2023-08-17T12:24:23;7.63;;;3.70;;
67063;SDS011;58476;48.072;11.970;2023-08-17T12:26:49;8.98;;;3.80;;
67063;SDS011;58476;48.072;11.970;2023-08-17T12:29:18;7.82;;;3.70;;
67063;SDS011;58476;48.072;11.970;2023-08-17T12:31:43;8.07;;;3.95;;
67063;SDS011;58476;48.072;11.970;2023-08-17T12:34:09;10.48;;;3.85;;
67063;SDS011;58476;48.072;11.970;2023-08-17T12:36:34;7.18;;;3.70;;
67063;SDS011;58476;48.072;11.970;2023-08-17T12:39:00;11.15;;;3.97;;
67063;SDS011;58476;48.072;11.970;2023-08-17T12:41:26;8.75;;;3.45;;
67063;SDS011;58476;48.072;11.970;2023-08-17T12:43:52;8.55;;;4.05;;
67063;SDS011;58476;48.072;11.970;2023-08-17T12:46:17;11.45;;;3.85;;
67063;SDS011;58476;48.072;11.970;2023-08-17T12:48:42;10.60;;;3.63;;
67063;SDS011;58476;48.072;11.970;2023-08-17T12:51:08;13.60;;;4.32;;
67063;SDS011;58476;48.072;11.970;2023-08-17T12:53:33;7.03;;;3.70;;
67063;SDS011;58476;48.072;11.970;2023-08-17T12:55:58;6.47;;;3.78;;
67063;SDS011;58476;48.072;11.970;2023-08-17T12:58:24;11.15;;;3.90;;
67063;SDS011;58476;48.072;11.970;2023-08-17T13:00:49;10.15;;;3.83;;
67063;SDS011;58476;48.072;11.970;2023-08-17T13:03:14;7.60;;;3.80;;
67063;SDS011;58476;48.072;11.970;2023-08-17T13:05:40;8.85;;;3.70;;
67063;SDS011;58476;48.072;11.970;2023-08-17T13:08:05;11.70;;;3.70;;
67063;SDS011;58476;48.072;11.970;2023-08-17T13:10:30;10.18;;;3.90;;
67063;SDS011;58476;48.072;11.970;2023-08-17T13:12:56;7.43;;;3.92;;
67063;SDS011;58476;48.072;11.970;2023-08-17T13:15:21;11.88;;;4.07;;
67063;SDS011;58476;48.072;11.970;2023-08-17T13:17:47;12.18;;;3.92;;
67063;SDS011;58476;48.072;11.970;2023-08-17T13:20:13;9.73;;;3.65;;
67063;SDS011;58476;48.072;11.970;2023-08-17T13:22:38;6.90;;;3.67;;
67063;SDS011;58476;48.072;11.970;2023-08-17T13:25:04;12.35;;;3.80;;
67063;SDS011;58476;48.072;11.970;2023-08-17T13:27:30;7.15;;;3.78;;
67063;SDS011;58476;48.072;11.970;2023-08-17T13:29:55;9.20;;;3.80;;
67063;SDS011;58476;48.072;11.970;2023-08-17T13:32:20;10.13;;;3.90;;
67063;SDS011;58476;48.072;11.970;2023-08-17T13:34:46;7.07;;;3.70;;
67063;SDS011;58476;48.072;11.970;2023-08-17T13:37:11;8.80;;;4.00;;
67063;SDS011;58476;48.072;11.970;2023-08-17T13:39:37;10.82;;;4.07;;
67063;SDS011;58476;48.072;11.970;2023-08-17T13:42:02;14.93;;;4.18;;
67063;SDS011;58476;48.072;11.970;2023-08-17T13:44:27;13.85;;;4.50;;
67063;SDS011;58476;48.072;11.970;2023-08-17T13:46:53;14.07;;;4.10;;
67063;SDS011;58476;48.072;11.970;2023-08-17T13:49:18;12.65;;;4.20;;
67063;SDS011;58476;48.072;11.970;2023-08-17T13:51:43;12.07;;;4.57;;
67063;SDS011;58476;48.072;11.970;2023-08-17T13:54:09;9.00;;;3.90;;
67063;SDS011;58476;48.072;11.970;2023-08-17T13:56:34;17.15;;;4.65;;
67063;SDS011;58476;48.072;11.970;2023-08-17T13:59:00;15.43;;;4.78;;
67063;SDS011;58476;48.072;11.970;2023-08-17T14:01:25;13.82;;;4.22;;
67063;SDS011;58476;48.072;11.970;2023-08-17T14:03:50;10.85;;;4.60;;
67063;SDS011;58476;48.072;11.970;2023-08-17T14:06:16;11.52;;;3.95;;
67063;SDS011;58476;48.072;11.970;2023-08-17T14:08:41;8.02;;;3.53;;
67063;SDS011;58476;48.072;11.970;2023-08-17T14:11:07;16.73;;;4.28;;
67063;SDS011;58476;48.072;11.970;2023-08-17T14:13:33;11.60;;;4.00;;
67063;SDS011;58476;48.072;11.970;2023-08-17T14:15:58;10.48;;;4.20;;
67063;SDS011;58476;48.072;11.970;2023-08-17T14:18:23;12.40;;;4.00;;
67063;SDS011;58476;48.072;11.970;2023-08-17T14:20:49;13.38;;;4.07;;
67063;SDS011;58476;48.072;11.970;2023-08-17T14:23:14;10.43;;;4.85;;
67063;SDS011;58476;48.072;11.970;2023-08-17T14:25:39;10.85;;;4.50;;
67063;SDS011;58476;48.072;11.970;2023-08-17T14:28:05;11.70;;;4.20;;
67063;SDS011;58476;48.072;11.970;2023-08-17T14:30:31;13.15;;;4.20;;
67063;SDS011;58476;48.072;11.970;2023-08-17T14:32:59;12.57;;;4.25;;
67063;SDS011;58476;48.072;11.970;2023-08-17T14:35:26;9.48;;;4.55;;
67063;SDS011;58476;48.072;11.970;2023-08-17T14:37:52;11.43;;;4.03;;